createdAt,value
2019-04-29T00:00:34.955Z,99.90
2019-04-29T00:03:03.649Z,99.90
2019-04-29T00:05:32.288Z,99.90
2019-04-29T00:08:00.864Z,99.90
2019-04-29T00:10:30.035Z,99.90
2019-04-29T00:12:58.729Z,99.90
2019-04-29T00:15:34.740Z,99.90
2019-04-29T00:18:04.854Z,99.90
2019-04-29T00:20:38.236Z,99.90
2019-04-29T00:23:07.084Z,99.90
2019-04-29T00:25:35.715Z,99.90
2019-04-29T00:28:04.410Z,99.90
2019-04-29T00:30:32.996Z,99.90
2019-04-29T00:33:01.461Z,99.90
2019-04-29T00:35:29.934Z,99.90
2019-04-29T00:38:15.236Z,99.90
2019-04-29T00:41:01.667Z,99.90
2019-04-29T00:43:31.970Z,99.90
2019-04-29T00:46:00.504Z,99.90
2019-04-29T00:48:28.968Z,99.90
2019-04-29T00:50:57.545Z,99.90
2019-04-29T00:53:26.880Z,99.90
2019-04-29T00:55:55.445Z,99.90
2019-04-29T00:58:23.945Z,99.90
2019-04-29T01:00:52.604Z,99.90
2019-04-29T01:03:24.177Z,99.90
2019-04-29T01:05:52.798Z,99.90
2019-04-29T01:08:21.273Z,99.90
2019-04-29T01:10:49.893Z,99.90
2019-04-29T01:13:18.399Z,99.90
2019-04-29T01:15:46.860Z,99.90
2019-04-29T01:18:15.446Z,99.90
2019-04-29T01:20:43.948Z,99.90
2019-04-29T01:23:12.481Z,99.90
2019-04-29T01:25:42.640Z,99.90
2019-04-29T01:28:24.907Z,99.90
2019-04-29T01:31:00.551Z,99.90
2019-04-29T01:33:29.070Z,99.90
2019-04-29T01:36:04.910Z,99.90
2019-04-29T01:38:33.410Z,99.90
2019-04-29T01:41:05.118Z,99.90
2019-04-29T01:43:51.497Z,99.90
2019-04-29T01:46:20.171Z,99.90
2019-04-29T01:48:48.642Z,99.90
2019-04-29T01:51:17.156Z,99.90
2019-04-29T01:53:45.690Z,99.90
2019-04-29T01:56:14.144Z,99.90
2019-04-29T01:58:42.653Z,99.90
2019-04-29T02:01:11.172Z,99.90
2019-04-29T02:03:39.653Z,99.90
2019-04-29T02:06:08.160Z,99.90
2019-04-29T02:08:36.749Z,99.90
2019-04-29T02:11:05.206Z,99.90
2019-04-29T02:13:33.716Z,99.90
2019-04-29T02:16:02.174Z,99.90
2019-04-29T02:18:30.707Z,99.90
2019-04-29T02:20:59.362Z,99.90
2019-04-29T02:23:35.204Z,99.90
2019-04-29T02:26:03.852Z,99.90
2019-04-29T02:28:32.316Z,99.90
2019-04-29T02:31:02.557Z,99.90
2019-04-29T02:33:31.069Z,99.90
2019-04-29T02:35:59.670Z,99.90
2019-04-29T02:38:29.771Z,99.90
2019-04-29T02:41:02.527Z,99.90
2019-04-29T02:43:38.728Z,99.90
2019-04-29T02:46:07.256Z,99.90
2019-04-29T02:48:35.851Z,99.90
2019-04-29T02:51:04.462Z,99.90
2019-04-29T02:53:32.905Z,99.90
2019-04-29T02:56:01.753Z,99.90
2019-04-29T02:58:47.254Z,99.90
2019-04-29T03:01:17.535Z,99.90
2019-04-29T03:03:47.694Z,99.90
2019-04-29T03:06:16.403Z,99.90
2019-04-29T03:08:45.041Z,99.90
2019-04-29T03:11:13.732Z,99.90
2019-04-29T03:13:42.400Z,99.90
2019-04-29T03:16:11.151Z,99.90
2019-04-29T03:18:41.392Z,99.90
2019-04-29T03:21:14.232Z,99.90
2019-04-29T03:23:42.745Z,99.90
2019-04-29T03:26:11.278Z,99.90
2019-04-29T03:28:39.829Z,99.90
2019-04-29T03:31:08.489Z,99.90
2019-04-29T03:33:37.018Z,99.90
2019-04-29T03:36:05.904Z,99.90
2019-04-29T03:38:34.520Z,99.90
2019-04-29T03:41:03.033Z,99.90
2019-04-29T03:43:31.585Z,99.90
2019-04-29T03:46:00.442Z,99.90
2019-04-29T03:48:29.027Z,99.90
2019-04-29T03:50:57.485Z,99.90
2019-04-29T03:53:28.528Z,99.90
2019-04-29T03:55:56.539Z,99.90
2019-04-29T03:58:25.415Z,99.90
2019-04-29T04:00:55.688Z,99.90
2019-04-29T04:03:31.626Z,99.90
2019-04-29T04:06:01.841Z,99.90
2019-04-29T04:08:31.935Z,99.90
2019-04-29T04:11:00.482Z,99.90
2019-04-29T04:13:29.065Z,99.90
2019-04-29T04:15:57.597Z,99.90
2019-04-29T04:18:27.514Z,99.90
2019-04-29T04:20:56.202Z,99.90
2019-04-29T04:23:24.767Z,99.90
2019-04-29T04:25:53.366Z,99.90
2019-04-29T04:28:22.052Z,99.90
2019-04-29T04:30:50.584Z,99.90
2019-04-29T04:33:19.166Z,99.90
2019-04-29T04:35:47.752Z,99.90
2019-04-29T04:38:16.346Z,99.90
2019-04-29T04:40:46.590Z,99.90
2019-04-29T04:43:15.097Z,99.90
2019-04-29T04:45:43.823Z,99.90
2019-04-29T04:48:12.499Z,99.90
2019-04-29T04:50:41.128Z,99.90
2019-04-29T04:53:09.984Z,99.90
2019-04-29T04:55:40.145Z,99.90
2019-04-29T04:58:08.834Z,99.90
2019-04-29T05:00:38.076Z,99.90
2019-04-29T05:03:06.533Z,99.90
2019-04-29T05:05:35.065Z,99.90
2019-04-29T05:08:03.652Z,99.90
2019-04-29T05:10:32.156Z,99.90
2019-04-29T05:13:00.726Z,99.90
2019-04-29T05:15:29.256Z,99.90
2019-04-29T05:17:57.846Z,99.90
2019-04-29T05:20:26.488Z,99.90
2019-04-29T05:22:59.533Z,99.90
2019-04-29T05:25:30.375Z,99.90
2019-04-29T05:27:59.341Z,99.90
2019-04-29T05:30:27.876Z,99.90
2019-04-29T05:32:56.589Z,99.90
2019-04-29T05:35:46.849Z,99.90
2019-04-29T05:38:16.991Z,99.90
2019-04-29T05:40:47.102Z,99.90
2019-04-29T05:43:17.343Z,99.90
2019-04-29T05:45:53.309Z,99.90
2019-04-29T05:48:21.753Z,99.90
2019-04-29T05:50:54.808Z,99.90
2019-04-29T05:53:34.254Z,99.90
2019-04-29T05:56:02.706Z,99.90
2019-04-29T05:58:32.951Z,99.90
2019-04-29T06:01:22.517Z,99.90
2019-04-29T06:03:50.985Z,99.90
2019-04-29T06:06:19.441Z,99.90
2019-04-29T06:08:47.940Z,99.90
2019-04-29T06:11:16.534Z,99.90
2019-04-29T06:13:45.065Z,99.90
2019-04-29T06:16:15.881Z,99.90
2019-04-29T06:18:43.820Z,99.90
2019-04-29T06:21:12.327Z,99.90
2019-04-29T06:23:40.918Z,99.90
2019-04-29T06:26:30.158Z,99.90
2019-04-29T06:28:58.656Z,99.90
2019-04-29T06:31:27.128Z,99.90
2019-04-29T06:33:55.586Z,99.90
2019-04-29T06:36:24.104Z,99.90
2019-04-29T06:38:52.636Z,99.90
2019-04-29T06:41:21.168Z,99.90
2019-04-29T06:43:52.413Z,99.90
2019-04-29T06:46:19.868Z,99.90
2019-04-29T06:48:48.344Z,99.90
2019-04-29T06:51:16.919Z,99.90
2019-04-29T06:53:47.801Z,99.90
2019-04-29T06:56:15.635Z,99.90
2019-04-29T06:58:44.212Z,99.90
2019-04-29T07:01:12.742Z,99.90
2019-04-29T07:03:41.196Z,99.90
2019-04-29T07:06:12.899Z,99.90
2019-04-29T07:08:41.372Z,99.90
2019-04-29T07:11:09.907Z,99.90
2019-04-29T07:13:38.397Z,99.90
2019-04-29T07:16:06.921Z,99.90
2019-04-29T07:18:35.373Z,99.90
2019-04-29T07:21:07.498Z,99.90
2019-04-29T07:23:34.071Z,99.90
2019-04-29T07:26:02.598Z,99.90
2019-04-29T07:28:31.120Z,99.90
2019-04-29T07:31:01.376Z,99.90
2019-04-29T07:33:49.142Z,99.90
2019-04-29T07:36:18.592Z,99.90
2019-04-29T07:38:51.747Z,99.90
2019-04-29T07:41:19.112Z,99.90
2019-04-29T07:43:48.308Z,99.90
2019-04-29T07:46:18.410Z,99.90
2019-04-29T07:49:00.363Z,99.90
2019-04-29T07:51:17.080Z,99.90
2019-04-29T07:53:45.827Z,99.90
2019-04-29T07:56:14.488Z,99.90
2019-04-29T07:58:42.956Z,99.90
2019-04-29T08:01:11.477Z,99.90
2019-04-29T08:03:40.380Z,99.90
2019-04-29T08:06:09.912Z,99.90
2019-04-29T08:08:38.746Z,99.90
2019-04-29T08:11:07.325Z,99.90
2019-04-29T08:13:37.722Z,99.90
2019-04-29T08:16:06.381Z,99.90
2019-04-29T08:18:34.884Z,99.90
2019-04-29T08:21:03.464Z,99.90
2019-04-29T08:23:32.600Z,99.90
2019-04-29T08:26:02.790Z,99.90
2019-04-29T08:28:32.347Z,99.90
2019-04-29T08:31:00.823Z,99.90
2019-04-29T08:33:29.358Z,99.90
2019-04-29T08:35:57.816Z,99.90
2019-04-29T08:38:26.350Z,99.90
2019-04-29T08:40:54.859Z,99.90
2019-04-29T08:43:24.955Z,99.90
2019-04-29T08:45:57.976Z,99.90
2019-04-29T08:48:26.565Z,99.90
2019-04-29T08:50:55.106Z,99.90
2019-04-29T08:53:23.637Z,99.90
2019-04-29T08:55:52.269Z,99.90
2019-04-29T08:58:20.728Z,99.90
2019-04-29T09:00:51.274Z,99.90
2019-04-29T09:03:23.452Z,99.90
2019-04-29T09:06:04.253Z,99.90
2019-04-29T09:08:19.848Z,99.90
2019-04-29T09:10:48.403Z,99.90
2019-04-29T09:13:16.871Z,99.90
2019-04-29T09:15:45.542Z,99.90
2019-04-29T09:18:14.051Z,99.90
2019-04-29T09:20:43.521Z,99.90
2019-04-29T09:23:13.625Z,99.90
2019-04-29T09:25:46.551Z,99.90
2019-04-29T09:28:18.262Z,99.90
2019-04-29T09:30:46.926Z,99.90
2019-04-29T09:33:15.443Z,99.90
2019-04-29T09:35:43.989Z,99.90
2019-04-29T09:38:13.317Z,99.90
2019-04-29T09:40:45.673Z,99.90
2019-04-29T09:43:27.096Z,99.90
2019-04-29T09:46:00.411Z,99.90
2019-04-29T09:48:28.951Z,99.90
2019-04-29T09:50:57.497Z,99.90
2019-04-29T09:53:25.990Z,99.90
2019-04-29T09:55:54.508Z,99.90
2019-04-29T09:58:22.971Z,99.90
2019-04-29T10:01:13.906Z,99.90
2019-04-29T10:03:50.494Z,99.90
2019-04-29T10:06:29.614Z,99.90
2019-04-29T10:08:58.138Z,99.90
2019-04-29T10:11:26.832Z,99.90
2019-04-29T10:13:55.331Z,99.90
2019-04-29T10:16:44.000Z,99.90
2019-04-29T10:19:16.641Z,99.90
2019-04-29T10:21:45.085Z,99.90
2019-04-29T10:24:14.664Z,99.90
2019-04-29T10:26:43.394Z,99.90
2019-04-29T10:29:17.959Z,99.90
2019-04-29T10:31:44.123Z,99.90
2019-04-29T10:34:14.708Z,99.90
2019-04-29T10:36:43.369Z,99.90
2019-04-29T10:39:22.737Z,99.90
2019-04-29T10:42:11.854Z,99.90
2019-04-29T10:44:57.140Z,99.90
2019-04-29T10:47:33.108Z,99.90
2019-04-29T10:50:03.236Z,99.90
2019-04-29T10:52:34.599Z,99.90
2019-04-29T10:55:02.491Z,99.90
2019-04-29T10:57:31.237Z,99.90
2019-04-29T11:00:07.175Z,99.90
2019-04-29T11:02:37.548Z,99.90
2019-04-29T11:05:21.620Z,99.90
2019-04-29T11:07:51.885Z,99.90
2019-04-29T11:10:25.742Z,99.90
2019-04-29T11:12:54.791Z,99.90
2019-04-29T11:15:28.727Z,99.90
2019-04-29T11:17:59.262Z,99.90
2019-04-29T11:20:26.323Z,99.90
2019-04-29T11:23:02.516Z,99.90
2019-04-29T11:25:32.694Z,99.90
2019-04-29T11:28:01.523Z,99.90
2019-04-29T11:30:34.837Z,99.90
2019-04-29T11:33:15.540Z,99.90
2019-04-29T11:35:59.294Z,99.90
2019-04-29T11:38:28.648Z,99.90
2019-04-29T11:40:58.474Z,99.90
2019-04-29T11:43:27.744Z,99.90
2019-04-29T11:45:56.743Z,99.90
2019-04-29T11:48:25.204Z,99.90
2019-04-29T11:51:07.580Z,99.90
2019-04-29T11:53:36.170Z,99.90
2019-04-29T11:56:04.702Z,99.90
2019-04-29T11:58:34.853Z,99.90
2019-04-29T12:01:08.768Z,99.90
2019-04-29T12:03:39.927Z,99.90
2019-04-29T12:06:16.320Z,99.90
2019-04-29T12:08:48.103Z,99.90
2019-04-29T12:11:15.426Z,99.90
2019-04-29T12:14:03.002Z,99.90
2019-04-29T12:16:33.542Z,99.90
2019-04-29T12:19:06.862Z,99.90
2019-04-29T12:21:37.046Z,99.90
2019-04-29T12:24:07.152Z,99.90
2019-04-29T12:26:43.013Z,99.90
2019-04-29T12:29:06.144Z,99.90
2019-04-29T12:31:36.292Z,99.90
2019-04-29T12:34:15.320Z,99.90
2019-04-29T12:36:54.994Z,99.90
2019-04-29T12:39:42.659Z,99.90
2019-04-29T12:42:06.529Z,99.90
2019-04-29T12:44:39.949Z,99.90
2019-04-29T12:47:25.541Z,99.90
2019-04-29T12:49:42.439Z,99.90
2019-04-29T12:52:11.975Z,99.90
2019-04-29T12:54:42.099Z,99.90
2019-04-29T12:57:10.781Z,99.90
2019-04-29T12:59:39.254Z,99.90
2019-04-29T13:02:15.235Z,99.90
2019-04-29T13:04:57.621Z,99.90
2019-04-29T13:07:46.112Z,99.90
2019-04-29T13:10:20.001Z,99.90
2019-04-29T13:12:48.602Z,99.90
2019-04-29T13:15:19.189Z,99.90
2019-04-29T13:18:03.734Z,99.90
2019-04-29T13:20:28.687Z,99.90
2019-04-29T13:23:01.115Z,99.90
2019-04-29T13:25:27.597Z,99.90
2019-04-29T13:28:03.746Z,99.90
2019-04-29T13:30:26.652Z,99.90
2019-04-29T13:32:55.125Z,99.90
2019-04-29T13:35:23.632Z,99.90
2019-04-29T13:37:52.084Z,99.90
2019-04-29T13:40:20.882Z,99.90
2019-04-29T13:42:51.036Z,99.90
2019-04-29T13:45:40.009Z,99.90
2019-04-29T13:48:10.473Z,99.90
2019-04-29T13:50:46.675Z,99.90
2019-04-29T13:53:16.565Z,99.90
2019-04-29T13:55:49.330Z,99.90
2019-04-29T13:58:22.234Z,99.90
2019-04-29T14:00:59.869Z,99.90
2019-04-29T14:03:42.033Z,99.90
2019-04-29T14:06:09.487Z,99.90
2019-04-29T14:08:37.943Z,99.90
2019-04-29T14:11:06.652Z,99.90
2019-04-29T14:13:38.866Z,99.90
2019-04-29T14:16:07.770Z,99.90
2019-04-29T14:18:36.090Z,99.90
2019-04-29T14:21:04.683Z,99.90
2019-04-29T14:23:33.206Z,99.90
2019-04-29T14:26:01.735Z,99.90
2019-04-29T14:28:30.252Z,99.90
2019-04-29T14:30:58.793Z,99.90
2019-04-29T14:33:28.969Z,99.90
2019-04-29T14:36:05.266Z,99.90
2019-04-29T14:38:35.949Z,99.90
2019-04-29T14:41:04.093Z,99.90
2019-04-29T14:43:43.182Z,99.90
2019-04-29T14:46:29.656Z,96.60
2019-04-29T14:49:06.333Z,96.40
2019-04-29T14:51:36.931Z,98.40
2019-04-29T14:54:07.293Z,99.90
2019-04-29T14:56:35.783Z,98.00
2019-04-29T14:59:07.092Z,99.90
2019-04-29T15:01:41.983Z,99.90
2019-04-29T15:04:19.112Z,95.30
2019-04-29T15:06:45.508Z,99.50
2019-04-29T15:09:17.673Z,99.90
2019-04-29T15:11:47.386Z,99.70
2019-04-29T15:14:34.588Z,97.40
2019-04-29T15:17:07.768Z,98.90
2019-04-29T15:19:57.632Z,98.00
2019-04-29T15:22:33.704Z,95.80
2019-04-29T15:25:02.277Z,98.30
2019-04-29T15:27:30.745Z,96.50
2019-04-29T15:29:59.219Z,94.60
2019-04-29T15:32:28.727Z,99.60
2019-04-29T15:34:57.226Z,94.50
2019-04-29T15:37:25.693Z,95.90
2019-04-29T15:39:54.366Z,97.80
2019-04-29T15:42:23.001Z,97.90
2019-04-29T15:44:55.460Z,97.30
2019-04-29T15:47:21.735Z,97.20
2019-04-29T15:49:50.364Z,97.20
2019-04-29T15:52:21.041Z,96.10
2019-04-29T15:54:51.002Z,98.10
2019-04-29T15:57:19.477Z,98.00
2019-04-29T15:59:49.575Z,98.80
2019-04-29T16:02:18.295Z,99.10
2019-04-29T16:05:04.495Z,99.90
2019-04-29T16:07:32.172Z,99.40
2019-04-29T16:10:02.276Z,99.20
2019-04-29T16:12:38.296Z,99.80
2019-04-29T16:15:07.698Z,99.90
2019-04-29T16:17:38.119Z,99.90
2019-04-29T16:20:07.830Z,99.90
2019-04-29T16:22:39.287Z,99.90
2019-04-29T16:25:10.908Z,99.90
2019-04-29T16:27:41.626Z,99.90
2019-04-29T16:30:08.069Z,99.90
2019-04-29T16:32:40.167Z,99.90
2019-04-29T16:35:10.151Z,99.90
2019-04-29T16:37:38.896Z,99.90
2019-04-29T16:40:09.669Z,99.90
2019-04-29T16:42:40.037Z,99.90
2019-04-29T16:45:12.339Z,99.90
2019-04-29T16:47:39.270Z,99.90
2019-04-29T16:50:08.123Z,99.90
2019-04-29T16:52:55.951Z,99.90
2019-04-29T16:55:26.103Z,99.90
2019-04-29T16:57:59.798Z,99.90
2019-04-29T17:00:27.036Z,99.90
2019-04-29T17:02:55.661Z,99.90
2019-04-29T17:05:24.455Z,99.90
2019-04-29T17:07:53.001Z,99.90
2019-04-29T17:10:32.599Z,99.90
2019-04-29T17:13:01.134Z,99.90
2019-04-29T17:15:29.941Z,99.90
2019-04-29T17:17:58.589Z,99.90
2019-04-29T17:20:27.192Z,99.90
2019-04-29T17:22:55.723Z,99.90
2019-04-29T17:25:24.261Z,99.90
2019-04-29T17:27:57.451Z,99.90
2019-04-29T17:30:46.641Z,99.90
2019-04-29T17:33:11.396Z,99.90
2019-04-29T17:35:46.897Z,99.90
2019-04-29T17:38:10.581Z,99.90
2019-04-29T17:40:50.615Z,99.90
2019-04-29T17:43:18.254Z,99.90
2019-04-29T17:45:48.508Z,99.90
2019-04-29T17:48:19.514Z,99.90
2019-04-29T17:50:49.764Z,99.90
2019-04-29T17:53:22.692Z,99.90
2019-04-29T17:55:55.471Z,99.90
2019-04-29T17:58:31.426Z,99.90
2019-04-29T18:01:01.664Z,99.90
2019-04-29T18:03:41.268Z,99.90
2019-04-29T18:06:09.260Z,99.90
2019-04-29T18:08:48.007Z,99.90
2019-04-29T18:11:16.514Z,99.90
2019-04-29T18:13:45.839Z,99.90
2019-04-29T18:16:19.027Z,99.90
2019-04-29T18:19:01.831Z,99.90
2019-04-29T18:21:37.177Z,99.90
2019-04-29T18:27:25.202Z,99.90
2019-04-29T18:29:55.059Z,99.90
2019-04-29T18:32:34.692Z,99.90
2019-04-29T18:34:55.853Z,99.90
2019-04-29T18:37:24.967Z,99.90
2019-04-29T18:39:53.516Z,99.90
2019-04-29T18:42:22.003Z,99.90
2019-04-29T18:44:59.393Z,99.90
2019-04-29T18:47:23.018Z,99.90
2019-04-29T18:49:51.087Z,99.90
2019-04-29T18:52:25.886Z,99.90
2019-04-29T18:54:49.863Z,99.90
2019-04-29T18:57:27.887Z,99.90
2019-04-29T18:59:48.560Z,99.90
2019-04-29T19:02:17.742Z,99.90
2019-04-29T19:04:53.484Z,99.90
2019-04-29T19:07:20.361Z,99.90
2019-04-29T19:09:52.740Z,99.90
2019-04-29T19:12:21.403Z,99.90
2019-04-29T19:14:49.942Z,99.90
2019-04-29T19:17:18.475Z,99.90
2019-04-29T19:19:46.985Z,99.90
2019-04-29T19:22:15.830Z,99.90
2019-04-29T19:24:48.015Z,99.90
2019-04-29T19:27:15.134Z,99.90
2019-04-29T19:29:44.569Z,99.90
2019-04-29T19:32:13.236Z,99.90
2019-04-29T19:34:43.481Z,99.90
2019-04-29T19:37:12.073Z,99.90
2019-04-29T19:39:40.700Z,99.90
2019-04-29T19:42:09.357Z,99.90
2019-04-29T19:44:37.990Z,99.90
2019-04-29T19:47:06.607Z,99.90
2019-04-29T19:49:35.970Z,99.90
2019-04-29T19:52:05.086Z,99.90
2019-04-29T19:54:33.557Z,99.90
2019-04-29T19:57:06.989Z,99.90
2019-04-29T19:59:32.959Z,99.90
2019-04-29T20:02:05.559Z,99.90
2019-04-29T20:04:33.970Z,99.90
2019-04-29T20:07:07.223Z,99.90
2019-04-29T20:09:33.711Z,99.90
2019-04-29T20:12:11.446Z,99.90
2019-04-29T20:14:36.054Z,99.90
2019-04-29T20:17:12.789Z,99.90
2019-04-29T20:19:37.895Z,99.90
2019-04-29T20:22:09.369Z,99.90
2019-04-29T20:24:37.165Z,99.90
2019-04-29T20:27:07.642Z,99.90
2019-04-29T20:29:38.321Z,99.90
2019-04-29T20:32:07.847Z,99.90
2019-04-29T20:34:36.951Z,99.90
2019-04-29T20:37:06.463Z,99.90
2019-04-29T20:39:36.418Z,99.90
2019-04-29T20:42:10.066Z,99.90
2019-04-29T20:44:36.959Z,99.90
2019-04-29T20:47:19.112Z,99.90
2019-04-29T20:49:39.538Z,99.90
2019-04-29T20:52:13.431Z,99.90
2019-04-29T20:54:41.264Z,99.90
2019-04-29T20:57:17.732Z,99.90
2019-04-29T20:59:42.185Z,99.90
2019-04-29T21:02:12.692Z,99.90
2019-04-29T21:04:46.457Z,99.90
2019-04-29T21:07:10.786Z,99.90
2019-04-29T21:09:39.428Z,99.90
2019-04-29T21:12:25.555Z,99.90
2019-04-29T21:14:59.031Z,99.90
2019-04-29T21:17:31.484Z,99.90
2019-04-29T21:19:56.349Z,99.90
2019-04-29T21:22:26.052Z,99.90
2019-04-29T21:24:55.143Z,99.90
2019-04-29T21:27:25.883Z,99.90
2019-04-29T21:29:54.220Z,99.90
2019-04-29T21:32:25.939Z,99.90
2019-04-29T21:35:01.961Z,99.90
2019-04-29T21:37:40.083Z,99.90
2019-04-29T21:40:14.765Z,99.90
2019-04-29T21:42:51.296Z,99.90
2019-04-29T21:45:39.806Z,99.90
2019-04-29T21:48:09.520Z,99.90
2019-04-29T21:50:38.148Z,99.90
2019-04-29T21:53:06.764Z,99.90
2019-04-29T21:55:35.786Z,99.90
2019-04-29T21:58:04.509Z,99.90
2019-04-29T22:00:34.918Z,99.90
2019-04-29T22:03:05.302Z,99.90
2019-04-29T22:05:35.039Z,99.90
2019-04-29T22:08:03.841Z,99.90
2019-04-29T22:10:35.021Z,99.90
2019-04-29T22:13:04.927Z,99.90
2019-04-29T22:15:39.090Z,99.90
2019-04-29T22:18:07.283Z,99.90
2019-04-29T22:20:35.665Z,99.90
2019-04-29T22:23:08.364Z,99.90
2019-04-29T22:25:36.499Z,99.90
2019-04-29T22:28:05.113Z,99.90
2019-04-29T22:30:35.402Z,99.90
2019-04-29T22:33:05.205Z,99.90
2019-04-29T22:35:37.337Z,99.90
2019-04-29T22:38:07.730Z,99.90
2019-04-29T22:40:40.922Z,99.90
2019-04-29T22:43:10.187Z,99.90
2019-04-29T22:45:38.912Z,99.90
2019-04-29T22:48:16.605Z,99.90
2019-04-29T22:50:38.077Z,99.90
2019-04-29T22:53:08.950Z,99.90
2019-04-29T22:55:38.919Z,99.90
2019-04-29T22:58:09.614Z,99.90
2019-04-29T23:00:38.114Z,99.90
2019-04-29T23:03:06.707Z,99.90
2019-04-29T23:05:35.640Z,99.90
2019-04-29T23:08:05.552Z,99.90
2019-04-29T23:10:35.674Z,99.90
2019-04-29T23:13:06.198Z,99.90
2019-04-29T23:15:35.703Z,99.90
2019-04-29T23:18:06.062Z,99.90
2019-04-29T23:20:38.950Z,99.90
2019-04-29T23:23:10.184Z,99.90
2019-04-29T23:25:40.277Z,99.90
2019-04-29T23:28:08.782Z,99.90
2019-04-29T23:30:37.294Z,99.90
2019-04-29T23:33:05.745Z,99.90
2019-04-29T23:35:34.951Z,99.90
2019-04-29T23:38:08.186Z,99.90
2019-04-29T23:40:33.911Z,99.90
2019-04-29T23:43:02.488Z,99.90
2019-04-29T23:45:30.930Z,99.90
2019-04-29T23:47:59.452Z,99.90
2019-04-29T23:50:28.270Z,99.90
2019-04-29T23:52:56.876Z,99.90
2019-04-29T23:55:29.122Z,99.90
